createdAt,value
2019-02-22T00:00:21.947Z,7.30
2019-02-22T00:02:48.427Z,7.20
2019-02-22T00:05:14.867Z,7.30
2019-02-22T00:07:41.564Z,7.20
2019-02-22T00:10:08.255Z,7.20
2019-02-22T00:12:34.727Z,7.10
2019-02-22T00:15:01.174Z,7.20
2019-02-22T00:17:27.735Z,7.20
2019-02-22T00:19:54.524Z,7.20
2019-02-22T00:22:21.215Z,7.20
2019-02-22T00:24:47.918Z,7.20
2019-02-22T00:27:14.856Z,7.20
2019-02-22T00:29:41.303Z,7.30
2019-02-22T00:32:08.248Z,7.50
2019-02-22T00:34:34.994Z,7.70
2019-02-22T00:37:01.587Z,7.70
2019-02-22T00:39:28.275Z,7.70
2019-02-22T00:41:54.744Z,7.80
2019-02-22T00:44:21.203Z,7.80
2019-02-22T00:46:47.900Z,7.80
2019-02-22T00:49:14.367Z,7.80
2019-02-22T00:51:41.064Z,7.80
2019-02-22T00:54:07.756Z,7.90
2019-02-22T00:56:34.204Z,7.80
2019-02-22T00:59:00.672Z,7.80
2019-02-22T01:01:27.352Z,7.80
2019-02-22T01:03:53.828Z,7.80
2019-02-22T01:06:20.532Z,7.80
2019-02-22T01:08:47.916Z,7.80
2019-02-22T01:11:14.359Z,7.70
2019-02-22T01:13:41.052Z,7.70
2019-02-22T01:16:07.728Z,7.70
2019-02-22T01:18:34.900Z,7.70
2019-02-22T01:21:01.820Z,7.70
2019-02-22T01:23:28.992Z,7.80
2019-02-22T01:25:55.668Z,7.80
2019-02-22T01:28:22.371Z,7.80
2019-02-22T01:30:49.079Z,7.80
2019-02-22T01:33:15.773Z,7.80
2019-02-22T01:35:42.443Z,7.70
2019-02-22T01:38:09.384Z,7.70
2019-02-22T01:40:43.731Z,7.80
2019-02-22T01:43:04.219Z,7.70
2019-02-22T01:45:30.664Z,7.70
2019-02-22T01:47:57.619Z,7.70
2019-02-22T01:50:24.497Z,7.70
2019-02-22T01:52:51.201Z,7.70
2019-02-22T01:55:17.652Z,7.70
2019-02-22T01:57:44.348Z,7.70
2019-02-22T02:00:11.146Z,7.70
2019-02-22T02:02:37.842Z,7.70
2019-02-22T02:05:04.450Z,7.70
2019-02-22T02:07:31.245Z,7.70
2019-02-22T02:09:57.808Z,7.70
2019-02-22T02:12:24.708Z,7.70
2019-02-22T02:14:51.175Z,7.70
2019-02-22T02:17:17.935Z,7.70
2019-02-22T02:19:44.721Z,7.60
2019-02-22T02:22:11.167Z,7.70
2019-02-22T02:24:37.889Z,7.60
2019-02-22T02:27:04.565Z,7.70
2019-02-22T02:29:31.348Z,7.70
2019-02-22T02:31:58.459Z,7.70
2019-02-22T02:34:25.020Z,7.70
2019-02-22T02:36:51.700Z,7.70
2019-02-22T02:39:18.397Z,7.70
2019-02-22T02:41:45.087Z,7.70
2019-02-22T02:44:11.784Z,7.70
2019-02-22T02:46:38.224Z,7.70
2019-02-22T02:49:04.688Z,7.70
2019-02-22T02:51:31.207Z,7.60
2019-02-22T02:53:57.976Z,7.60
2019-02-22T02:56:24.900Z,7.60
2019-02-22T02:58:51.613Z,7.60
2019-02-22T03:01:18.300Z,7.60
2019-02-22T03:03:45.308Z,7.50
2019-02-22T03:06:19.644Z,7.50
2019-02-22T03:08:46.362Z,7.50
2019-02-22T03:11:20.575Z,7.50
2019-02-22T03:13:41.683Z,7.50
2019-02-22T03:16:08.449Z,7.50
2019-02-22T03:18:35.393Z,7.50
2019-02-22T03:21:02.068Z,7.40
2019-02-22T03:23:28.776Z,7.50
2019-02-22T03:25:55.793Z,7.50
2019-02-22T03:28:22.467Z,7.50
2019-02-22T03:30:48.968Z,7.50
2019-02-22T03:33:15.714Z,7.50
2019-02-22T03:35:42.430Z,7.50
2019-02-22T03:38:09.348Z,7.40
2019-02-22T03:40:36.519Z,7.40
2019-02-22T03:43:02.982Z,7.40
2019-02-22T03:45:29.448Z,7.40
2019-02-22T03:47:56.125Z,7.40
2019-02-22T03:50:22.824Z,7.40
2019-02-22T03:52:52.658Z,7.50
2019-02-22T03:55:19.221Z,7.40
2019-02-22T03:57:45.668Z,7.40
2019-02-22T04:00:12.141Z,7.40
2019-02-22T04:02:38.680Z,7.50
2019-02-22T04:05:05.426Z,7.50
2019-02-22T04:07:32.357Z,7.50
2019-02-22T04:09:59.302Z,7.40
2019-02-22T04:12:25.979Z,7.40
2019-02-22T04:14:52.453Z,7.30
2019-02-22T04:17:19.148Z,7.30
2019-02-22T04:19:45.860Z,7.40
2019-02-22T04:22:12.313Z,7.30
2019-02-22T04:24:38.999Z,7.30
2019-02-22T04:27:05.681Z,7.30
2019-02-22T04:29:32.158Z,7.30
2019-02-22T04:31:58.608Z,7.20
2019-02-22T04:34:25.084Z,7.20
2019-02-22T04:36:51.527Z,7.20
2019-02-22T04:39:17.987Z,7.30
2019-02-22T04:41:44.442Z,7.20
2019-02-22T04:44:11.152Z,7.20
2019-02-22T04:46:37.796Z,7.20
2019-02-22T04:49:04.716Z,7.20
2019-02-22T04:51:31.179Z,7.20
2019-02-22T04:53:57.629Z,7.20
2019-02-22T04:56:24.427Z,7.20
2019-02-22T04:58:51.381Z,7.20
2019-02-22T05:01:17.936Z,7.20
2019-02-22T05:03:44.379Z,7.20
2019-02-22T05:06:10.840Z,7.20
2019-02-22T05:08:37.532Z,7.20
2019-02-22T05:11:04.252Z,7.20
2019-02-22T05:13:30.711Z,7.20
2019-02-22T05:15:57.545Z,7.20
2019-02-22T05:18:24.257Z,7.20
2019-02-22T05:20:50.724Z,7.20
2019-02-22T05:23:17.412Z,7.20
2019-02-22T05:25:43.968Z,7.20
2019-02-22T05:28:10.693Z,7.10
2019-02-22T05:30:37.199Z,7.10
2019-02-22T05:33:03.907Z,7.10
2019-02-22T05:35:30.691Z,7.10
2019-02-22T05:37:57.396Z,7.00
2019-02-22T05:40:23.858Z,7.00
2019-02-22T05:42:50.547Z,7.00
2019-02-22T05:45:17.016Z,7.00
2019-02-22T05:47:43.737Z,7.00
2019-02-22T05:50:10.224Z,6.90
2019-02-22T05:52:37.464Z,6.90
2019-02-22T05:55:04.061Z,6.80
2019-02-22T05:57:30.735Z,6.70
2019-02-22T05:59:57.205Z,6.70
2019-02-22T06:02:23.885Z,6.70
2019-02-22T06:04:50.339Z,6.70
2019-02-22T06:07:17.036Z,6.70
2019-02-22T06:09:43.707Z,6.70
2019-02-22T06:12:10.657Z,6.70
2019-02-22T06:14:37.368Z,6.70
2019-02-22T06:17:14.178Z,6.60
2019-02-22T06:19:32.520Z,6.60
2019-02-22T06:21:59.217Z,6.60
2019-02-22T06:24:25.681Z,6.60
2019-02-22T06:26:52.233Z,6.60
2019-02-22T06:29:19.167Z,6.60
2019-02-22T06:31:45.888Z,6.60
2019-02-22T06:34:12.336Z,6.60
2019-02-22T06:36:39.049Z,6.60
2019-02-22T06:39:05.536Z,6.60
2019-02-22T06:41:32.001Z,6.70
2019-02-22T06:43:58.448Z,6.70
2019-02-22T06:46:25.138Z,6.70
2019-02-22T06:48:51.812Z,6.70
2019-02-22T06:51:18.749Z,6.70
2019-02-22T06:53:45.199Z,6.70
2019-02-22T06:56:11.667Z,6.70
2019-02-22T06:58:38.361Z,6.70
2019-02-22T07:01:05.078Z,6.70
2019-02-22T07:03:31.756Z,6.80
2019-02-22T07:05:58.456Z,6.80
2019-02-22T07:08:25.384Z,6.80
2019-02-22T07:11:07.311Z,6.80
2019-02-22T07:13:33.761Z,6.80
2019-02-22T07:16:00.223Z,6.90
2019-02-22T07:18:26.907Z,6.90
2019-02-22T07:20:53.575Z,6.90
2019-02-22T07:23:20.489Z,6.90
2019-02-22T07:25:46.939Z,6.90
2019-02-22T07:28:13.652Z,6.90
2019-02-22T07:30:40.344Z,6.80
2019-02-22T07:33:07.036Z,6.80
2019-02-22T07:35:33.708Z,6.80
2019-02-22T07:38:00.656Z,6.80
2019-02-22T07:40:27.100Z,6.80
2019-02-22T07:42:53.564Z,6.80
2019-02-22T07:45:20.023Z,6.80
2019-02-22T07:47:46.595Z,6.80
2019-02-22T07:50:13.053Z,6.70
2019-02-22T07:52:39.770Z,6.70
2019-02-22T07:55:06.520Z,6.70
2019-02-22T07:57:33.464Z,6.80
2019-02-22T08:00:00.392Z,6.80
2019-02-22T08:02:27.575Z,6.80
2019-02-22T08:04:54.495Z,6.80
2019-02-22T08:07:20.962Z,6.80
2019-02-22T08:09:47.668Z,6.80
2019-02-22T08:12:14.137Z,6.80
2019-02-22T08:14:40.681Z,6.90
2019-02-22T08:17:07.376Z,7.00
2019-02-22T08:19:33.828Z,7.00
2019-02-22T08:22:03.428Z,7.00
2019-02-22T08:24:29.124Z,7.10
2019-02-22T08:26:55.592Z,7.10
2019-02-22T08:29:22.268Z,7.10
2019-02-22T08:31:48.993Z,7.10
2019-02-22T08:34:15.921Z,7.00
2019-02-22T08:36:42.596Z,6.90
2019-02-22T08:39:09.287Z,7.00
2019-02-22T08:41:35.748Z,7.00
2019-02-22T08:44:02.405Z,7.10
2019-02-22T08:46:28.854Z,7.20
2019-02-22T08:48:55.334Z,7.20
2019-02-22T08:51:22.008Z,7.10
2019-02-22T08:53:48.961Z,7.10
2019-02-22T08:56:15.411Z,7.10
2019-02-22T08:58:42.328Z,7.00
2019-02-22T09:01:09.251Z,7.00
2019-02-22T09:03:36.019Z,6.90
2019-02-22T09:06:02.723Z,6.80
2019-02-22T09:08:29.186Z,6.70
2019-02-22T09:11:00.542Z,6.60
2019-02-22T09:13:24.219Z,6.50
2019-02-22T09:15:51.141Z,6.50
2019-02-22T09:18:17.608Z,6.50
2019-02-22T09:20:44.290Z,6.40
2019-02-22T09:23:10.983Z,6.30
2019-02-22T09:25:37.436Z,6.20
2019-02-22T09:28:03.908Z,6.10
2019-02-22T09:30:31.256Z,6.10
2019-02-22T09:32:58.197Z,6.00
2019-02-22T09:35:24.651Z,5.90
2019-02-22T09:37:51.121Z,5.60
2019-02-22T09:40:17.571Z,5.50
2019-02-22T09:42:44.281Z,5.40
2019-02-22T09:45:11.627Z,5.30
2019-02-22T09:47:38.335Z,5.20
2019-02-22T09:50:05.924Z,5.20
2019-02-22T09:52:32.606Z,5.10
2019-02-22T09:54:59.296Z,5.00
2019-02-22T09:57:25.843Z,5.00
2019-02-22T09:59:52.774Z,5.00
2019-02-22T10:02:19.680Z,4.90
2019-02-22T10:04:54.466Z,4.90
2019-02-22T10:07:15.191Z,4.80
2019-02-22T10:09:41.910Z,4.70
2019-02-22T10:12:08.456Z,4.60
2019-02-22T10:14:35.153Z,4.50
2019-02-22T10:17:01.855Z,4.60
2019-02-22T10:19:28.570Z,4.60
2019-02-22T10:21:57.423Z,4.50
2019-02-22T10:24:23.612Z,4.50
2019-02-22T10:26:50.291Z,4.60
2019-02-22T10:29:16.762Z,4.60
2019-02-22T10:31:43.208Z,4.60
2019-02-22T10:34:09.668Z,4.50
2019-02-22T10:36:44.656Z,4.50
2019-02-22T10:39:06.084Z,4.50
2019-02-22T10:41:32.752Z,4.50
2019-02-22T10:43:59.670Z,4.50
2019-02-22T10:46:26.141Z,4.40
2019-02-22T10:48:53.719Z,4.30
2019-02-22T10:51:20.407Z,4.20
2019-02-22T10:53:47.120Z,4.20
2019-02-22T10:56:13.567Z,4.10
2019-02-22T10:58:40.033Z,4.10
2019-02-22T11:01:06.484Z,4.30
2019-02-22T11:03:34.105Z,4.30
2019-02-22T11:06:00.559Z,4.40
2019-02-22T11:08:27.356Z,4.40
2019-02-22T11:10:54.076Z,4.30
2019-02-22T11:13:21.368Z,4.30
2019-02-22T11:15:48.087Z,4.30
2019-02-22T11:18:15.064Z,4.10
2019-02-22T11:20:41.532Z,4.30
2019-02-22T11:23:07.981Z,4.40
2019-02-22T11:25:34.675Z,4.40
2019-02-22T11:28:01.361Z,4.30
2019-02-22T11:30:27.927Z,4.30
2019-02-22T11:32:54.852Z,4.30
2019-02-22T11:35:23.423Z,4.30
2019-02-22T11:37:50.111Z,4.30
2019-02-22T11:40:17.575Z,4.50
2019-02-22T11:42:44.023Z,4.50
2019-02-22T11:45:10.484Z,4.50
2019-02-22T11:47:36.951Z,4.60
2019-02-22T11:50:03.684Z,4.70
2019-02-22T11:52:30.131Z,4.60
2019-02-22T11:54:56.853Z,4.70
2019-02-22T11:57:23.532Z,4.70
2019-02-22T11:59:50.239Z,4.70
2019-02-22T12:02:17.369Z,4.60
2019-02-22T12:04:44.283Z,4.60
2019-02-22T12:07:11.452Z,4.70
2019-02-22T12:09:37.925Z,4.70
2019-02-22T12:12:04.648Z,4.70
2019-02-22T12:14:31.504Z,4.70
2019-02-22T12:16:58.384Z,4.60
2019-02-22T12:19:25.199Z,4.60
2019-02-22T12:21:51.751Z,4.50
2019-02-22T12:24:18.212Z,4.40
2019-02-22T12:26:44.664Z,4.40
2019-02-22T12:29:11.382Z,4.30
2019-02-22T12:31:38.062Z,4.20
2019-02-22T12:34:04.767Z,4.30
2019-02-22T12:36:31.537Z,4.20
2019-02-22T12:38:58.480Z,4.20
2019-02-22T12:41:24.932Z,4.20
2019-02-22T12:43:51.404Z,4.00
2019-02-22T12:46:18.332Z,3.90
2019-02-22T12:48:44.791Z,3.90
2019-02-22T12:51:11.239Z,3.90
2019-02-22T12:53:37.939Z,3.80
2019-02-22T12:56:04.384Z,3.80
2019-02-22T12:58:31.088Z,3.90
2019-02-22T13:00:57.763Z,3.90
2019-02-22T13:03:24.680Z,3.90
2019-02-22T13:05:51.144Z,3.90
2019-02-22T13:08:17.591Z,3.90
2019-02-22T13:10:44.279Z,3.90
2019-02-22T13:13:11.205Z,4.00
2019-02-22T13:15:37.680Z,4.00
2019-02-22T13:18:04.149Z,4.10
2019-02-22T13:20:31.185Z,4.20
2019-02-22T13:22:57.631Z,4.10
2019-02-22T13:25:24.332Z,4.00
2019-02-22T13:27:51.003Z,3.90
2019-02-22T13:30:17.721Z,3.90
2019-02-22T13:32:44.501Z,3.90
2019-02-22T13:35:11.317Z,3.90
2019-02-22T13:37:37.989Z,3.70
2019-02-22T13:40:05.156Z,3.60
2019-02-22T13:42:31.990Z,3.50
2019-02-22T13:44:58.513Z,3.40
2019-02-22T13:47:25.288Z,3.20
2019-02-22T13:49:51.757Z,3.20
2019-02-22T13:52:18.458Z,3.20
2019-02-22T13:54:45.273Z,3.20
2019-02-22T13:57:12.037Z,3.20
2019-02-22T13:59:38.992Z,3.20
2019-02-22T14:02:05.439Z,3.20
2019-02-22T14:04:32.184Z,3.10
2019-02-22T14:06:58.890Z,3.10
2019-02-22T14:09:25.592Z,3.10
2019-02-22T14:11:52.040Z,3.10
2019-02-22T14:14:18.982Z,3.10
2019-02-22T14:16:45.431Z,3.10
2019-02-22T14:19:12.376Z,3.20
2019-02-22T14:21:39.302Z,3.20
2019-02-22T14:24:05.777Z,3.20
2019-02-22T14:26:32.469Z,3.20
2019-02-22T14:28:59.267Z,3.20
2019-02-22T14:31:25.939Z,3.20
2019-02-22T14:33:52.388Z,3.20
2019-02-22T14:36:19.324Z,3.10
2019-02-22T14:38:46.018Z,3.20
2019-02-22T14:41:12.722Z,3.20
2019-02-22T14:43:39.876Z,3.30
2019-02-22T14:46:06.356Z,3.30
2019-02-22T14:48:32.805Z,3.20
2019-02-22T14:50:59.276Z,3.20
2019-02-22T14:53:25.723Z,3.20
2019-02-22T14:55:52.423Z,3.10
2019-02-22T14:58:19.100Z,3.10
2019-02-22T15:00:45.676Z,3.10
2019-02-22T15:03:12.127Z,3.20
2019-02-22T15:05:38.624Z,3.10
2019-02-22T15:08:05.316Z,3.00
2019-02-22T15:10:31.793Z,3.00
2019-02-22T15:12:58.245Z,3.00
2019-02-22T15:15:35.124Z,3.00
2019-02-22T15:18:02.703Z,3.00
2019-02-22T15:20:29.432Z,2.90
2019-02-22T15:22:56.357Z,2.90
2019-02-22T15:25:22.829Z,2.90
2019-02-22T15:27:49.499Z,2.90
2019-02-22T15:30:16.086Z,2.90
2019-02-22T15:32:43.108Z,2.90
2019-02-22T15:35:10.923Z,2.90
2019-02-22T15:37:37.856Z,2.80
2019-02-22T15:40:04.867Z,2.70
2019-02-22T15:42:31.876Z,2.60
2019-02-22T15:44:58.840Z,2.60
2019-02-22T15:47:25.612Z,2.50
2019-02-22T15:49:52.089Z,2.40
2019-02-22T15:52:18.540Z,2.40
2019-02-22T15:54:45.483Z,2.40
2019-02-22T15:57:12.160Z,2.30
2019-02-22T15:59:38.881Z,2.40
2019-02-22T16:02:06.031Z,2.30
2019-02-22T16:04:51.119Z,2.20
2019-02-22T16:07:17.593Z,2.20
2019-02-22T16:09:44.065Z,2.20
2019-02-22T16:12:10.515Z,2.10
2019-02-22T16:14:37.191Z,2.10
2019-02-22T16:17:03.917Z,2.20
2019-02-22T16:19:30.609Z,2.20
2019-02-22T16:21:57.307Z,2.30
2019-02-22T16:24:24.004Z,2.20
2019-02-22T16:27:01.063Z,2.20
2019-02-22T16:29:27.990Z,2.10
2019-02-22T16:31:54.696Z,2.10
2019-02-22T16:34:21.152Z,2.10
2019-02-22T16:36:47.619Z,2.00
2019-02-22T16:39:14.071Z,2.00
2019-02-22T16:41:40.776Z,1.90
2019-02-22T16:44:07.223Z,1.90
2019-02-22T16:46:35.188Z,1.90
2019-02-22T16:49:02.177Z,1.80
2019-02-22T16:51:28.875Z,1.70
2019-02-22T16:53:55.555Z,1.70
2019-02-22T16:56:22.529Z,1.80
2019-02-22T16:58:49.204Z,1.80
2019-02-22T17:01:15.903Z,1.80
2019-02-22T17:03:42.355Z,1.80
2019-02-22T17:06:09.075Z,1.70
2019-02-22T17:08:36.003Z,1.70
2019-02-22T17:11:02.840Z,1.60
2019-02-22T17:13:29.536Z,1.70
2019-02-22T17:15:56.007Z,1.70
2019-02-22T17:18:22.461Z,1.70
2019-02-22T17:20:48.936Z,1.70
2019-02-22T17:23:15.856Z,1.70
2019-02-22T17:25:43.249Z,1.70
2019-02-22T17:28:09.696Z,1.70
2019-02-22T17:30:37.132Z,1.70
2019-02-22T17:33:03.838Z,1.70
2019-02-22T17:35:30.747Z,1.50
2019-02-22T17:37:57.200Z,1.50
2019-02-22T17:40:23.667Z,1.40
2019-02-22T17:42:50.135Z,1.30
2019-02-22T17:45:16.583Z,1.20
2019-02-22T17:47:43.284Z,1.00
2019-02-22T17:50:09.962Z,0.80
2019-02-22T17:52:36.724Z,0.60
2019-02-22T17:55:03.240Z,0.40
2019-02-22T17:57:31.517Z,0.30
2019-02-22T17:59:58.446Z,0.10
2019-02-22T18:02:24.920Z,0.00
2019-02-22T18:04:51.619Z,-0.10
2019-02-22T18:07:18.084Z,-0.20
2019-02-22T18:09:44.796Z,-0.30
2019-02-22T18:12:11.498Z,-0.30
2019-02-22T18:14:38.037Z,-0.40
2019-02-22T18:17:08.345Z,-0.40
2019-02-22T18:19:33.287Z,-0.50
2019-02-22T18:22:00.224Z,-0.50
2019-02-22T18:24:27.036Z,-0.50
2019-02-22T18:26:53.496Z,-0.60
2019-02-22T18:29:20.188Z,-0.70
2019-02-22T18:31:46.870Z,-0.80
2019-02-22T18:34:13.579Z,-0.90
2019-02-22T18:36:40.019Z,-0.90
2019-02-22T18:39:06.759Z,-1.00
2019-02-22T18:41:33.468Z,-1.00
2019-02-22T18:44:00.193Z,-1.10
2019-02-22T18:46:26.892Z,-1.10
2019-02-22T18:48:53.352Z,-1.10
2019-02-22T18:51:19.795Z,-1.10
2019-02-22T18:53:46.260Z,-1.10
2019-02-22T18:56:12.932Z,-1.10
2019-02-22T18:58:39.615Z,-1.10
2019-02-22T19:01:06.295Z,-1.20
2019-02-22T19:03:32.748Z,-1.10
2019-02-22T19:05:59.447Z,-1.20
2019-02-22T19:08:32.475Z,-1.10
2019-02-22T19:10:54.976Z,-1.10
2019-02-22T19:13:21.424Z,-1.20
2019-02-22T19:15:48.481Z,-1.20
2019-02-22T19:18:14.928Z,-1.20
2019-02-22T19:20:41.610Z,-1.30
2019-02-22T19:23:08.543Z,-1.30
2019-02-22T19:25:35.226Z,-1.30
2019-02-22T19:28:01.908Z,-1.30
2019-02-22T19:30:28.460Z,-1.30
2019-02-22T19:32:55.391Z,-1.40
2019-02-22T19:35:22.195Z,-1.40
2019-02-22T19:37:48.892Z,-1.40
2019-02-22T19:40:16.231Z,-1.40
2019-02-22T19:42:42.916Z,-1.40
2019-02-22T19:45:09.384Z,-1.40
2019-02-22T19:47:41.779Z,-1.50
2019-02-22T19:50:04.719Z,-1.50
2019-02-22T19:52:31.163Z,-1.50
2019-02-22T19:54:57.620Z,-1.40
2019-02-22T19:57:24.295Z,-1.50
2019-02-22T19:59:51.091Z,-1.50
2019-02-22T20:02:17.848Z,-1.40
2019-02-22T20:04:44.854Z,-1.40
2019-02-22T20:07:11.401Z,-1.50
2019-02-22T20:09:38.084Z,-1.50
2019-02-22T20:12:04.763Z,-1.50
2019-02-22T20:14:31.455Z,-1.50
2019-02-22T20:16:58.250Z,-1.50
2019-02-22T20:19:24.703Z,-1.60
2019-02-22T20:21:51.160Z,-1.60
2019-02-22T20:24:18.216Z,-1.60
2019-02-22T20:26:44.922Z,-1.50
2019-02-22T20:29:11.628Z,-1.50
2019-02-22T20:31:38.088Z,-1.50
2019-02-22T20:34:04.534Z,-1.60
2019-02-22T20:36:30.988Z,-1.60
2019-02-22T20:38:57.445Z,-1.70
2019-02-22T20:41:23.914Z,-1.70
2019-02-22T20:43:50.649Z,-1.80
2019-02-22T20:46:17.377Z,-1.90
2019-02-22T20:48:44.057Z,-1.90
2019-02-22T20:51:10.997Z,-1.90
2019-02-22T20:53:37.933Z,-2.00
2019-02-22T20:56:04.632Z,-2.00
2019-02-22T20:58:31.312Z,-2.00
2019-02-22T21:00:58.243Z,-2.10
2019-02-22T21:03:24.692Z,-2.10
2019-02-22T21:05:51.373Z,-2.20
2019-02-22T21:08:18.047Z,-2.20
2019-02-22T21:10:44.611Z,-2.20
2019-02-22T21:13:11.531Z,-2.20
2019-02-22T21:15:38.688Z,-2.20
2019-02-22T21:18:15.610Z,-2.20
2019-02-22T21:20:34.212Z,-2.20
2019-02-22T21:23:00.655Z,-2.30
2019-02-22T21:25:27.109Z,-2.30
2019-02-22T21:27:54.041Z,-2.30
2019-02-22T21:30:21.059Z,-2.30
2019-02-22T21:32:47.754Z,-2.30
2019-02-22T21:35:14.214Z,-2.30
2019-02-22T21:37:40.667Z,-2.20
2019-02-22T21:40:07.215Z,-2.20
2019-02-22T21:42:34.127Z,-2.30
2019-02-22T21:45:00.819Z,-2.30
2019-02-22T21:47:27.512Z,-2.30
2019-02-22T21:49:54.192Z,-2.30
2019-02-22T21:52:21.111Z,-2.30
2019-02-22T21:54:47.661Z,-2.20
2019-02-22T21:57:14.119Z,-2.30
2019-02-22T21:59:41.033Z,-2.30
2019-02-22T22:02:07.484Z,-2.30
2019-02-22T22:04:34.637Z,-2.20
2019-02-22T22:07:01.096Z,-2.20
2019-02-22T22:09:27.763Z,-2.10
2019-02-22T22:11:54.220Z,-2.10
2019-02-22T22:14:20.896Z,-2.00
2019-02-22T22:16:47.684Z,-1.90
2019-02-22T22:19:14.391Z,-1.90
2019-02-22T22:21:40.851Z,-2.00
2019-02-22T22:24:07.299Z,-1.90
2019-02-22T22:26:34.006Z,-1.90
2019-02-22T22:29:00.455Z,-1.90
2019-02-22T22:31:26.911Z,-1.90
2019-02-22T22:33:53.607Z,-1.90
2019-02-22T22:36:20.293Z,-1.90
2019-02-22T22:38:46.996Z,-1.90
2019-02-22T22:41:13.461Z,-1.80
2019-02-22T22:43:40.392Z,-1.80
2019-02-22T22:46:07.117Z,-1.80
2019-02-22T22:48:33.644Z,-1.80
2019-02-22T22:51:00.571Z,-1.90
2019-02-22T22:53:27.028Z,-1.90
2019-02-22T22:55:53.952Z,-1.90
2019-02-22T22:58:20.664Z,-1.80
2019-02-22T23:01:05.841Z,-1.80
2019-02-22T23:03:32.523Z,-1.80
2019-02-22T23:05:59.241Z,-1.80
2019-02-22T23:08:25.993Z,-1.80
2019-02-22T23:10:52.543Z,-1.90
2019-02-22T23:13:19.091Z,-1.90
2019-02-22T23:15:46.016Z,-1.80
2019-02-22T23:18:12.477Z,-1.80
2019-02-22T23:20:39.144Z,-1.80
2019-02-22T23:23:05.943Z,-1.90
2019-02-22T23:25:32.390Z,-1.90
2019-02-22T23:27:59.076Z,-1.90
2019-02-22T23:30:26.025Z,-1.90
2019-02-22T23:32:52.726Z,-1.90
2019-02-22T23:35:19.495Z,-2.00
2019-02-22T23:37:45.953Z,-2.00
2019-02-22T23:40:12.880Z,-2.10
2019-02-22T23:42:39.343Z,-2.10
2019-02-22T23:45:05.799Z,-2.10
2019-02-22T23:47:32.494Z,-2.10
2019-02-22T23:49:58.939Z,-2.10
2019-02-22T23:52:25.496Z,-2.10
2019-02-22T23:54:52.432Z,-2.20
2019-02-22T23:57:19.116Z,-2.20
2019-02-22T23:59:45.560Z,-2.10
